createdAt,value
2018-09-28T00:00:39.079Z,69.91
2018-09-28T00:03:07.554Z,70.28
2018-09-28T00:05:36.048Z,70.19
2018-09-28T00:08:04.518Z,69.79
2018-09-28T00:10:33.055Z,69.68
2018-09-28T00:13:01.506Z,69.68
2018-09-28T00:15:29.984Z,70.44
2018-09-28T00:17:58.462Z,70.24
2018-09-28T00:20:26.938Z,70.21
2018-09-28T00:22:55.440Z,70.18
2018-09-28T00:25:23.916Z,70.10
2018-09-28T00:27:52.394Z,70.23
2018-09-28T00:30:20.879Z,69.80
2018-09-28T00:32:49.345Z,69.88
2018-09-28T00:35:17.825Z,70.10
2018-09-28T00:37:46.296Z,69.67
2018-09-28T00:40:14.819Z,70.27
2018-09-28T00:42:43.279Z,69.85
2018-09-28T00:45:11.768Z,70.10
2018-09-28T00:47:40.270Z,70.01
2018-09-28T00:50:08.752Z,69.77
2018-09-28T00:52:37.226Z,70.29
2018-09-28T00:55:05.698Z,69.70
2018-09-28T00:57:34.191Z,69.76
2018-09-28T01:00:02.700Z,70.13
2018-09-28T01:02:31.145Z,69.70
2018-09-28T01:04:59.617Z,70.12
2018-09-28T01:07:28.090Z,70.36
2018-09-28T01:09:56.553Z,70.17
2018-09-28T01:12:25.014Z,70.23
2018-09-28T01:14:53.518Z,70.22
2018-09-28T01:17:21.977Z,69.96
2018-09-28T01:19:50.530Z,69.97
2018-09-28T01:22:19.006Z,70.35
2018-09-28T01:24:47.469Z,70.43
2018-09-28T01:27:15.942Z,70.24
2018-09-28T01:29:44.428Z,70.05
2018-09-28T01:32:12.900Z,70.38
2018-09-28T01:34:41.369Z,70.23
2018-09-28T01:37:09.862Z,69.78
2018-09-28T01:39:38.359Z,69.79
2018-09-28T01:42:06.823Z,70.29
2018-09-28T01:44:35.296Z,69.73
2018-09-28T01:47:03.761Z,69.88
2018-09-28T01:49:32.234Z,69.79
2018-09-28T01:52:00.720Z,69.84
2018-09-28T01:54:29.217Z,70.04
2018-09-28T01:56:57.707Z,70.13
2018-09-28T01:59:26.175Z,69.73
2018-09-28T02:01:54.653Z,70.46
2018-09-28T02:04:23.131Z,70.36
2018-09-28T02:06:51.714Z,69.86
2018-09-28T02:09:20.175Z,69.86
2018-09-28T02:11:48.641Z,70.21
2018-09-28T02:14:17.176Z,69.77
2018-09-28T02:16:45.660Z,69.78
2018-09-28T02:19:14.137Z,70.44
2018-09-28T02:21:42.638Z,70.17
2018-09-28T02:24:11.289Z,70.40
2018-09-28T02:26:39.858Z,70.36
2018-09-28T02:29:09.083Z,70.34
2018-09-28T02:31:37.566Z,70.40
2018-09-28T02:34:06.233Z,70.30
2018-09-28T02:36:34.706Z,69.96
2018-09-28T02:39:03.371Z,70.34
2018-09-28T02:41:31.846Z,70.19
2018-09-28T02:44:00.341Z,70.32
2018-09-28T02:46:28.843Z,70.32
2018-09-28T02:48:57.323Z,70.41
2018-09-28T02:51:25.775Z,70.38
2018-09-28T02:53:54.267Z,70.43
2018-09-28T02:56:22.814Z,69.78
2018-09-28T02:58:51.284Z,69.52
2018-09-28T03:01:19.767Z,69.69
2018-09-28T03:03:48.244Z,70.38
2018-09-28T03:06:16.736Z,70.36
2018-09-28T03:08:45.240Z,70.13
2018-09-28T03:11:13.705Z,70.38
2018-09-28T03:13:42.197Z,70.29
2018-09-28T03:16:10.699Z,70.52
2018-09-28T03:18:39.170Z,70.39
2018-09-28T03:21:07.647Z,70.25
2018-09-28T03:23:36.120Z,69.92
2018-09-28T03:26:04.631Z,69.78
2018-09-28T03:28:33.130Z,69.96
2018-09-28T03:31:01.614Z,69.89
2018-09-28T03:33:30.126Z,69.84
2018-09-28T03:35:58.627Z,70.10
2018-09-28T03:38:27.099Z,69.93
2018-09-28T03:40:55.563Z,70.54
2018-09-28T03:43:24.026Z,69.90
2018-09-28T03:45:52.490Z,69.90
2018-09-28T03:48:20.961Z,70.01
2018-09-28T03:50:49.422Z,70.42
2018-09-28T03:53:17.912Z,69.78
2018-09-28T03:55:46.375Z,70.29
2018-09-28T03:58:14.888Z,69.81
2018-09-28T04:00:43.396Z,69.88
2018-09-28T04:03:11.882Z,69.73
2018-09-28T04:05:40.365Z,69.92
2018-09-28T04:08:08.873Z,70.47
2018-09-28T04:10:37.359Z,70.41
2018-09-28T04:13:05.838Z,69.94
2018-09-28T04:15:34.337Z,70.47
2018-09-28T04:18:02.835Z,70.45
2018-09-28T04:20:31.301Z,70.34
2018-09-28T04:22:59.773Z,70.20
2018-09-28T04:25:28.319Z,69.67
2018-09-28T04:27:56.806Z,69.97
2018-09-28T04:30:25.294Z,69.83
2018-09-28T04:32:53.754Z,70.40
2018-09-28T04:35:22.231Z,69.71
2018-09-28T04:37:50.893Z,70.63
2018-09-28T04:40:19.367Z,69.80
2018-09-28T04:42:47.853Z,70.38
2018-09-28T04:45:16.372Z,69.83
2018-09-28T04:47:44.806Z,70.38
2018-09-28T04:50:13.274Z,70.31
2018-09-28T04:52:41.768Z,70.41
2018-09-28T04:55:10.231Z,70.24
2018-09-28T04:57:38.707Z,70.35
2018-09-28T05:00:07.783Z,69.89
2018-09-28T05:02:36.285Z,70.19
2018-09-28T05:05:04.770Z,70.24
2018-09-28T05:07:33.250Z,70.24
2018-09-28T05:10:01.719Z,70.33
2018-09-28T05:12:30.200Z,69.94
2018-09-28T05:14:58.678Z,70.33
2018-09-28T05:17:27.152Z,70.38
2018-09-28T05:19:55.609Z,70.01
2018-09-28T05:22:24.111Z,69.80
2018-09-28T05:24:52.587Z,70.04
2018-09-28T05:27:21.071Z,70.24
2018-09-28T05:29:49.551Z,70.20
2018-09-28T05:32:18.204Z,69.75
2018-09-28T05:34:46.583Z,69.66
2018-09-28T05:37:15.168Z,70.36
2018-09-28T05:39:43.538Z,69.80
2018-09-28T05:42:12.028Z,70.29
2018-09-28T05:44:40.507Z,70.06
2018-09-28T05:47:08.983Z,70.28
2018-09-28T05:49:37.458Z,69.84
2018-09-28T05:52:05.955Z,70.46
2018-09-28T05:54:34.427Z,69.85
2018-09-28T05:57:02.902Z,69.69
2018-09-28T05:59:36.714Z,70.37
2018-09-28T06:02:10.654Z,70.25
2018-09-28T06:04:44.262Z,69.89
2018-09-28T06:07:12.783Z,70.04
2018-09-28T06:09:41.275Z,70.10
2018-09-28T06:12:09.747Z,69.78
2018-09-28T06:14:38.253Z,69.81
2018-09-28T06:17:06.831Z,70.26
2018-09-28T06:19:35.306Z,69.89
2018-09-28T06:22:03.765Z,70.26
2018-09-28T06:24:32.247Z,69.96
2018-09-28T06:27:00.736Z,70.33
2018-09-28T06:29:29.201Z,70.41
2018-09-28T06:31:57.674Z,70.13
2018-09-28T06:34:26.238Z,70.27
2018-09-28T06:36:54.697Z,70.28
2018-09-28T06:39:23.214Z,70.26
2018-09-28T06:41:51.772Z,70.15
2018-09-28T06:44:20.243Z,70.35
2018-09-28T06:46:48.735Z,69.72
2018-09-28T06:49:17.228Z,70.41
2018-09-28T06:51:45.689Z,70.16
2018-09-28T06:54:14.224Z,70.34
2018-09-28T06:56:42.664Z,69.93
2018-09-28T06:59:11.180Z,69.66
2018-09-28T07:01:39.646Z,70.52
2018-09-28T07:04:08.271Z,70.18
2018-09-28T07:06:36.659Z,69.96
2018-09-28T07:09:07.928Z,70.09
2018-09-28T07:11:36.463Z,70.35
2018-09-28T07:14:04.959Z,70.53
2018-09-28T07:16:33.446Z,70.35
2018-09-28T07:19:01.921Z,69.99
2018-09-28T07:21:30.431Z,70.11
2018-09-28T07:23:58.923Z,69.92
2018-09-28T07:26:27.411Z,70.55
2018-09-28T07:28:55.891Z,70.37
2018-09-28T07:31:24.389Z,70.57
2018-09-28T07:33:52.889Z,70.02
2018-09-28T07:36:21.541Z,69.84
2018-09-28T07:38:49.888Z,70.33
2018-09-28T07:41:18.357Z,70.55
2018-09-28T07:43:46.834Z,70.23
2018-09-28T07:46:15.305Z,69.99
2018-09-28T07:48:43.779Z,70.06
2018-09-28T07:51:12.275Z,70.55
2018-09-28T07:53:40.760Z,70.48
2018-09-28T07:56:09.264Z,69.92
2018-09-28T07:58:37.744Z,69.98
2018-09-28T08:01:06.221Z,70.60
2018-09-28T08:03:34.694Z,70.40
2018-09-28T08:06:03.162Z,69.97
2018-09-28T08:08:31.647Z,70.34
2018-09-28T08:11:00.138Z,69.87
2018-09-28T08:13:28.605Z,70.47
2018-09-28T08:15:57.095Z,69.92
2018-09-28T08:18:25.583Z,70.05
2018-09-28T08:20:54.066Z,70.43
2018-09-28T08:23:22.586Z,70.06
2018-09-28T08:25:51.055Z,70.30
2018-09-28T08:28:19.513Z,69.82
2018-09-28T08:30:48.020Z,69.94
2018-09-28T08:33:16.491Z,70.40
2018-09-28T08:35:44.952Z,70.33
2018-09-28T08:38:13.425Z,70.59
2018-09-28T08:40:41.901Z,70.17
2018-09-28T08:43:10.375Z,70.18
2018-09-28T08:45:38.940Z,70.20
2018-09-28T08:48:07.835Z,70.14
2018-09-28T08:50:36.524Z,70.38
2018-09-28T08:53:05.039Z,70.02
2018-09-28T08:55:33.630Z,70.18
2018-09-28T08:58:02.123Z,69.85
2018-09-28T09:00:30.600Z,70.44
2018-09-28T09:02:59.099Z,69.88
2018-09-28T09:05:27.563Z,69.84
2018-09-28T09:07:56.037Z,70.46
2018-09-28T09:10:24.545Z,70.36
2018-09-28T09:12:53.009Z,70.69
2018-09-28T09:15:21.511Z,69.92
2018-09-28T09:17:50.079Z,70.23
2018-09-28T09:20:18.519Z,70.11
2018-09-28T09:22:47.074Z,70.46
2018-09-28T09:25:15.542Z,70.57
2018-09-28T09:27:44.840Z,70.11
2018-09-28T09:30:13.410Z,70.53
2018-09-28T09:32:41.851Z,70.06
2018-09-28T09:35:10.338Z,70.50
2018-09-28T09:37:38.820Z,70.22
2018-09-28T09:40:07.395Z,70.02
2018-09-28T09:42:35.936Z,70.03
2018-09-28T09:45:04.374Z,70.55
2018-09-28T09:47:32.846Z,70.06
2018-09-28T09:50:01.315Z,70.53
2018-09-28T09:52:29.791Z,70.71
2018-09-28T09:54:58.321Z,70.69
2018-09-28T09:57:26.844Z,70.36
2018-09-28T09:59:55.306Z,70.52
2018-09-28T10:02:28.861Z,70.57
2018-09-28T10:04:57.346Z,70.35
2018-09-28T10:07:25.827Z,70.62
2018-09-28T10:09:54.293Z,70.42
2018-09-28T10:12:22.804Z,70.21
2018-09-28T10:14:51.297Z,70.65
2018-09-28T10:17:19.762Z,70.25
2018-09-28T10:19:48.276Z,70.17
2018-09-28T10:22:16.734Z,70.99
2018-09-28T10:24:45.224Z,70.52
2018-09-28T10:27:13.766Z,70.80
2018-09-28T10:29:42.240Z,70.21
2018-09-28T10:32:10.787Z,70.63
2018-09-28T10:34:39.320Z,70.72
2018-09-28T10:37:07.753Z,70.88
2018-09-28T10:39:36.261Z,70.72
2018-09-28T10:42:04.730Z,70.67
2018-09-28T10:44:33.232Z,70.04
2018-09-28T10:47:01.693Z,70.58
2018-09-28T10:49:30.195Z,70.61
2018-09-28T10:51:58.775Z,70.50
2018-09-28T10:54:27.167Z,70.00
2018-09-28T10:56:55.828Z,70.59
2018-09-28T10:59:24.312Z,69.86
2018-09-28T11:01:52.766Z,69.99
2018-09-28T11:04:21.311Z,70.31
2018-09-28T11:06:49.771Z,69.90
2018-09-28T11:09:18.304Z,69.98
2018-09-28T11:11:46.794Z,69.96
2018-09-28T11:14:15.307Z,69.98
2018-09-28T11:16:43.766Z,69.83
2018-09-28T11:19:12.225Z,70.32
2018-09-28T11:21:40.737Z,69.93
2018-09-28T11:24:09.249Z,70.38
2018-09-28T11:26:37.742Z,69.96
2018-09-28T11:29:06.207Z,69.96
2018-09-28T11:31:34.681Z,70.35
2018-09-28T11:34:03.142Z,69.74
2018-09-28T11:36:31.616Z,70.33
2018-09-28T11:39:00.119Z,69.82
2018-09-28T11:41:28.615Z,70.36
2018-09-28T11:43:57.121Z,69.73
2018-09-28T11:46:25.611Z,70.58
2018-09-28T11:48:54.096Z,70.26
2018-09-28T11:51:22.598Z,69.80
2018-09-28T11:53:51.086Z,69.86
2018-09-28T11:56:19.591Z,70.34
2018-09-28T11:58:48.069Z,70.58
2018-09-28T12:01:16.561Z,69.96
2018-09-28T12:03:45.136Z,70.35
2018-09-28T12:06:13.594Z,70.32
2018-09-28T12:08:42.127Z,69.90
2018-09-28T12:11:10.606Z,70.45
2018-09-28T12:13:39.095Z,70.51
2018-09-28T12:16:07.604Z,70.03
2018-09-28T12:18:36.158Z,70.50
2018-09-28T12:21:04.615Z,69.80
2018-09-28T12:23:33.112Z,70.17
2018-09-28T12:26:01.650Z,70.32
2018-09-28T12:28:30.146Z,70.51
2018-09-28T12:30:58.618Z,70.01
2018-09-28T12:33:27.112Z,70.51
2018-09-28T12:35:55.603Z,70.31
2018-09-28T12:38:24.112Z,70.32
2018-09-28T12:40:52.618Z,69.94
2018-09-28T12:43:21.123Z,69.97
2018-09-28T12:45:49.612Z,70.55
2018-09-28T12:48:18.172Z,70.56
2018-09-28T12:50:46.706Z,70.49
2018-09-28T12:53:15.144Z,70.37
2018-09-28T12:55:43.633Z,70.27
2018-09-28T12:58:12.167Z,70.45
2018-09-28T13:00:40.699Z,70.49
2018-09-28T13:03:09.167Z,70.63
2018-09-28T13:05:37.702Z,70.62
2018-09-28T13:08:06.271Z,70.46
2018-09-28T13:10:34.764Z,69.98
2018-09-28T13:13:03.235Z,70.26
2018-09-28T13:15:31.720Z,70.34
2018-09-28T13:18:00.248Z,70.54
2018-09-28T13:20:28.771Z,70.08
2018-09-28T13:22:57.299Z,70.31
2018-09-28T13:25:25.834Z,69.93
2018-09-28T13:27:54.297Z,70.19
2018-09-28T13:30:22.809Z,70.59
2018-09-28T13:32:51.399Z,70.25
2018-09-28T13:35:19.825Z,70.48
2018-09-28T13:37:48.324Z,70.40
2018-09-28T13:40:16.872Z,70.83
2018-09-28T13:42:45.400Z,70.67
2018-09-28T13:45:13.970Z,70.21
2018-09-28T13:47:42.366Z,70.62
2018-09-28T13:50:10.907Z,70.34
2018-09-28T13:52:39.485Z,70.93
2018-09-28T13:55:08.247Z,70.76
2018-09-28T13:57:36.773Z,70.71
2018-09-28T14:00:05.651Z,70.57
2018-09-28T14:02:34.169Z,70.93
2018-09-28T14:05:02.744Z,70.17
2018-09-28T14:07:31.222Z,70.88
2018-09-28T14:09:59.724Z,70.83
2018-09-28T14:12:28.216Z,70.61
2018-09-28T14:14:56.732Z,70.61
2018-09-28T14:17:25.220Z,70.28
2018-09-28T14:19:53.726Z,70.92
2018-09-28T14:22:22.269Z,70.42
2018-09-28T14:24:50.836Z,70.68
2018-09-28T14:27:19.259Z,71.00
2018-09-28T14:29:47.745Z,70.32
2018-09-28T14:32:16.332Z,70.54
2018-09-28T14:34:44.905Z,70.62
2018-09-28T14:37:13.429Z,71.09
2018-09-28T14:39:41.907Z,70.54
2018-09-28T14:42:10.418Z,70.65
2018-09-28T14:44:38.958Z,70.44
2018-09-28T14:47:07.499Z,71.03
2018-09-28T14:49:35.982Z,71.13
2018-09-28T14:52:04.465Z,71.06
2018-09-28T14:54:33.024Z,70.98
2018-09-28T14:57:01.497Z,71.12
2018-09-28T14:59:30.002Z,70.80
2018-09-28T15:01:58.494Z,70.94
2018-09-28T15:04:27.147Z,70.55
2018-09-28T15:06:55.586Z,70.94
2018-09-28T15:09:24.072Z,71.14
2018-09-28T15:11:52.571Z,71.04
2018-09-28T15:14:21.101Z,70.54
2018-09-28T15:16:49.646Z,70.36
2018-09-28T15:19:18.086Z,71.10
2018-09-28T15:21:46.582Z,71.08
2018-09-28T15:24:15.069Z,71.21
2018-09-28T15:26:43.613Z,70.56
2018-09-28T15:29:12.148Z,71.14
2018-09-28T15:31:40.626Z,71.27
2018-09-28T15:34:09.120Z,70.79
2018-09-28T15:36:37.628Z,70.71
2018-09-28T15:39:09.088Z,70.56
2018-09-28T15:41:37.605Z,71.30
2018-09-28T15:44:06.098Z,70.93
2018-09-28T15:46:34.583Z,70.53
2018-09-28T15:49:03.071Z,70.88
2018-09-28T15:51:31.582Z,71.12
2018-09-28T15:54:00.415Z,70.83
2018-09-28T15:56:28.893Z,71.31
2018-09-28T15:58:57.376Z,71.04
2018-09-28T16:01:25.879Z,71.38
2018-09-28T16:03:54.384Z,71.32
2018-09-28T16:06:22.870Z,70.71
2018-09-28T16:08:51.373Z,70.81
2018-09-28T16:11:19.855Z,71.27
2018-09-28T16:13:48.424Z,71.05
2018-09-28T16:16:16.902Z,70.72
2018-09-28T16:18:45.473Z,71.13
2018-09-28T16:21:13.935Z,70.78
2018-09-28T16:23:42.401Z,71.13
2018-09-28T16:26:10.888Z,71.16
2018-09-28T16:28:39.376Z,71.15
2018-09-28T16:31:07.890Z,70.82
2018-09-28T16:33:36.607Z,71.16
2018-09-28T16:36:05.110Z,71.02
2018-09-28T16:38:33.597Z,71.26
2018-09-28T16:41:02.081Z,71.25
2018-09-28T16:43:30.592Z,70.71
2018-09-28T16:45:59.101Z,70.94
2018-09-28T16:48:27.571Z,71.43
2018-09-28T16:50:56.064Z,70.74
2018-09-28T16:53:24.571Z,71.42
2018-09-28T16:55:53.072Z,71.25
2018-09-28T16:58:21.584Z,71.17
2018-09-28T17:00:50.094Z,71.50
2018-09-28T17:03:18.651Z,70.82
2018-09-28T17:05:47.155Z,71.49
2018-09-28T17:08:15.635Z,71.33
2018-09-28T17:10:44.150Z,71.34
2018-09-28T17:13:12.647Z,71.18
2018-09-28T17:15:41.145Z,71.39
2018-09-28T17:18:09.660Z,71.11
2018-09-28T17:20:38.144Z,71.47
2018-09-28T17:23:06.640Z,71.06
2018-09-28T17:25:35.153Z,71.30
2018-09-28T17:28:03.796Z,71.10
2018-09-28T17:30:32.272Z,71.35
2018-09-28T17:33:00.774Z,71.48
2018-09-28T17:35:29.259Z,71.55
2018-09-28T17:37:57.754Z,71.10
2018-09-28T17:40:26.258Z,71.51
2018-09-28T17:42:54.722Z,71.23
2018-09-28T17:45:23.487Z,71.66
2018-09-28T17:47:51.966Z,71.85
2018-09-28T17:50:20.425Z,71.13
2018-09-28T17:52:48.890Z,71.14
2018-09-28T17:55:17.354Z,71.77
2018-09-28T17:57:45.856Z,71.42
2018-09-28T18:00:14.582Z,71.67
2018-09-28T18:02:43.050Z,71.63
2018-09-28T18:05:11.519Z,71.65
2018-09-28T18:07:39.996Z,71.04
2018-09-28T18:10:08.466Z,71.14
2018-09-28T18:12:36.953Z,71.63
2018-09-28T18:15:05.473Z,71.71
2018-09-28T18:17:33.952Z,71.86
2018-09-28T18:20:02.441Z,71.75
2018-09-28T18:22:31.017Z,71.23
2018-09-28T18:24:59.416Z,71.33
2018-09-28T18:27:27.882Z,71.78
2018-09-28T18:29:56.356Z,71.18
2018-09-28T18:32:24.856Z,71.19
2018-09-28T18:34:53.427Z,71.90
2018-09-28T18:37:21.958Z,71.75
2018-09-28T18:39:50.404Z,71.13
2018-09-28T18:42:18.985Z,71.91
2018-09-28T18:44:47.415Z,71.41
2018-09-28T18:47:15.895Z,71.79
2018-09-28T18:49:44.360Z,71.98
2018-09-28T18:52:12.857Z,71.82
2018-09-28T18:54:41.372Z,71.70
2018-09-28T18:57:09.839Z,71.89
2018-09-28T18:59:38.303Z,71.70
2018-09-28T19:02:06.766Z,71.84
2018-09-28T19:04:35.233Z,71.29
2018-09-28T19:07:03.865Z,71.73
2018-09-28T19:09:32.373Z,71.85
2018-09-28T19:12:00.830Z,71.85
2018-09-28T19:14:29.303Z,71.65
2018-09-28T19:16:57.784Z,71.80
2018-09-28T19:19:26.250Z,71.28
2018-09-28T19:21:54.736Z,71.79
2018-09-28T19:24:23.210Z,71.42
2018-09-28T19:26:51.821Z,71.97
2018-09-28T19:29:20.287Z,71.95
2018-09-28T19:31:48.784Z,71.98
2018-09-28T19:34:17.258Z,71.98
2018-09-28T19:36:45.727Z,71.33
2018-09-28T19:39:14.194Z,71.32
2018-09-28T19:41:42.684Z,71.59
2018-09-28T19:44:11.287Z,72.01
2018-09-28T19:46:39.760Z,71.50
2018-09-28T19:49:08.285Z,71.89
2018-09-28T19:51:36.779Z,71.39
2018-09-28T19:54:05.263Z,71.60
2018-09-28T19:56:33.755Z,71.67
2018-09-28T19:59:02.237Z,71.43
2018-09-28T20:01:30.754Z,71.54
2018-09-28T20:03:59.224Z,71.50
2018-09-28T20:06:27.699Z,71.64
2018-09-28T20:08:56.167Z,71.77
2018-09-28T20:11:24.642Z,72.06
2018-09-28T20:13:53.126Z,72.08
2018-09-28T20:16:21.599Z,72.17
2018-09-28T20:18:50.076Z,72.24
2018-09-28T20:21:18.563Z,71.69
2018-09-28T20:23:47.031Z,72.11
2018-09-28T20:26:15.488Z,71.54
2018-09-28T20:28:43.992Z,71.65
2018-09-28T20:31:12.476Z,72.19
2018-09-28T20:33:40.968Z,72.24
2018-09-28T20:36:09.443Z,71.62
2018-09-28T20:38:37.991Z,72.60
2018-09-28T20:41:06.423Z,72.20
2018-09-28T20:43:34.903Z,71.79
2018-09-28T20:46:03.407Z,72.35
2018-09-28T20:48:31.886Z,72.28
2018-09-28T20:51:00.379Z,71.79
2018-09-28T20:53:28.934Z,72.19
2018-09-28T20:55:57.407Z,72.08
2018-09-28T20:58:25.870Z,71.67
2018-09-28T21:00:54.386Z,72.12
2018-09-28T21:03:22.863Z,71.79
2018-09-28T21:05:51.329Z,71.79
2018-09-28T21:08:19.808Z,72.20
2018-09-28T21:10:48.333Z,72.30
2018-09-28T21:13:16.808Z,72.20
2018-09-28T21:15:45.308Z,72.36
2018-09-28T21:18:13.808Z,72.22
2018-09-28T21:20:42.287Z,72.21
2018-09-28T21:23:10.773Z,71.65
2018-09-28T21:25:39.239Z,71.69
2018-09-28T21:28:07.719Z,71.83
2018-09-28T21:30:36.219Z,71.71
2018-09-28T21:33:04.707Z,72.27
2018-09-28T21:35:33.253Z,72.00
2018-09-28T21:38:01.699Z,71.67
2018-09-28T21:40:30.174Z,72.20
2018-09-28T21:42:58.639Z,72.23
2018-09-28T21:45:27.128Z,71.55
2018-09-28T21:47:55.606Z,72.15
2018-09-28T21:50:24.075Z,72.38
2018-09-28T21:52:52.554Z,72.30
2018-09-28T21:55:21.041Z,72.04
2018-09-28T21:57:49.524Z,71.64
2018-09-28T22:00:18.128Z,71.44
2018-09-28T22:02:46.618Z,71.77
2018-09-28T22:05:15.096Z,71.80
2018-09-28T22:07:43.570Z,72.23
2018-09-28T22:10:12.067Z,71.70
2018-09-28T22:12:40.568Z,72.19
2018-09-28T22:15:09.034Z,71.77
2018-09-28T22:17:37.547Z,72.03
2018-09-28T22:20:06.385Z,71.56
2018-09-28T22:22:34.854Z,71.72
2018-09-28T22:25:03.331Z,72.36
2018-09-28T22:27:31.814Z,72.31
2018-09-28T22:30:00.322Z,72.44
2018-09-28T22:32:28.828Z,72.28
2018-09-28T22:34:57.315Z,72.38
2018-09-28T22:37:25.797Z,71.83
2018-09-28T22:39:54.288Z,72.08
2018-09-28T22:42:22.762Z,72.38
2018-09-28T22:44:51.240Z,72.14
2018-09-28T22:47:19.739Z,72.32
2018-09-28T22:49:48.208Z,71.92
2018-09-28T22:52:16.740Z,72.14
2018-09-28T22:54:45.226Z,72.26
2018-09-28T22:57:13.698Z,71.96
2018-09-28T22:59:42.162Z,71.84
2018-09-28T23:02:10.650Z,71.97
2018-09-28T23:04:39.234Z,71.98
2018-09-28T23:07:07.693Z,71.74
2018-09-28T23:09:36.182Z,72.45
2018-09-28T23:12:04.647Z,71.89
2018-09-28T23:14:33.132Z,72.43
2018-09-28T23:17:01.623Z,72.39
2018-09-28T23:19:30.147Z,71.82
2018-09-28T23:21:58.639Z,72.21
2018-09-28T23:24:27.132Z,71.85
2018-09-28T23:26:56.284Z,72.00
2018-09-28T23:29:24.743Z,72.21
2018-09-28T23:31:53.223Z,71.73
2018-09-28T23:34:21.732Z,72.06
2018-09-28T23:36:50.827Z,72.34
2018-09-28T23:39:19.312Z,71.97
2018-09-28T23:41:47.791Z,71.87
2018-09-28T23:44:16.308Z,71.96
2018-09-28T23:46:44.788Z,71.92
2018-09-28T23:49:13.258Z,72.64
2018-09-28T23:51:41.760Z,72.40
2018-09-28T23:54:10.231Z,72.01
2018-09-28T23:56:38.702Z,72.43
2018-09-28T23:59:07.183Z,72.68
